Time;durP1;ratioP1;P1;durP2;ratioP2;P2;SDS_P1;SDS_P2;PMS_P1;PMS_P2;Temp;Humidity;BMP_temperature;BMP_pressure;BME280_temperature;BME280_humidity;BME280_pressure;Samples;Min_cycle;Max_cycle;Signal;HPM_P1;HPM_P2
2021/01/13 00:01:41;;;;;;;4.83;2.80;;;;;;;0.55;98.01;96696.81;5051936;28;20220;-69
2021/01/13 00:04:06;;;;;;;9.83;2.97;;;;;;;0.51;98.33;96695.50;5051181;28;20272;-69
2021/01/13 00:06:33;;;;;;;4.63;3.17;;;;;;;0.56;98.48;96700.97;5052550;28;20197;-69
2021/01/13 00:08:59;;;;;;;4.83;3.00;;;;;;;0.62;98.03;96704.66;5050797;28;20260;-72
2021/01/13 00:11:24;;;;;;;7.70;2.90;;;;;;;0.69;98.54;96706.41;5052148;28;20534;-69
2021/01/13 00:13:50;;;;;;;3.50;2.60;;;;;;;0.66;98.26;96708.53;5051920;28;20529;-69
2021/01/13 00:16:15;;;;;;;7.23;2.90;;;;;;;0.79;97.51;96711.38;5051411;28;20769;-69
2021/01/13 00:18:41;;;;;;;5.37;2.63;;;;;;;0.83;96.56;96715.25;5051982;28;20557;-70
2021/01/13 00:21:17;;;;;;;6.27;2.70;;;;;;;0.82;96.14;96706.69;5048884;28;20181;-69
2021/01/13 00:23:47;;;;;;;3.70;2.50;;;;;;;0.86;95.76;96706.34;5051583;28;20180;-69
2021/01/13 00:26:21;;;;;;;2.93;2.10;;;;;;;0.88;94.12;96710.38;5049622;28;20276;-69
2021/01/13 00:28:47;;;;;;;2.80;1.83;;;;;;;0.88;94.17;96718.13;5033738;28;20220;-70
2021/01/13 00:31:13;;;;;;;4.53;2.40;;;;;;;0.88;94.07;96709.56;5050907;28;20540;-69
2021/01/13 00:33:39;;;;;;;5.23;2.30;;;;;;;0.89;94.28;96708.59;5050577;28;20239;-69
2021/01/13 00:36:05;;;;;;;2.90;2.20;;;;;;;0.77;95.14;96700.44;5050334;28;20190;-71
2021/01/13 00:38:30;;;;;;;3.00;1.90;;;;;;;0.78;93.26;96710.56;5051469;28;20575;-69
2021/01/13 00:40:55;;;;;;;4.70;2.10;;;;;;;0.80;93.12;96718.13;5032426;28;20273;-72
2021/01/13 00:43:21;;;;;;;4.13;2.47;;;;;;;0.84;93.86;96721.97;5049952;28;20267;-69
2021/01/13 00:45:47;;;;;;;2.93;2.10;;;;;;;0.91;93.92;96716.97;5050002;28;20225;-70
2021/01/13 00:48:12;;;;;;;4.73;3.00;;;;;;;0.95;93.62;96713.88;5050345;28;20186;-70
2021/01/13 00:50:37;;;;;;;5.00;2.50;;;;;;;0.92;94.05;96724.53;5049817;28;20237;-70
2021/01/13 00:53:03;;;;;;;4.50;2.60;;;;;;;0.87;95.10;96720.84;5050112;28;20707;-70
2021/01/13 00:55:29;;;;;;;4.60;2.63;;;;;;;0.99;94.93;96725.47;5051225;28;20182;-70
2021/01/13 00:57:55;;;;;;;5.97;3.10;;;;;;;0.96;94.87;96719.84;5050808;28;20197;-72
2021/01/13 01:00:20;;;;;;;3.27;2.50;;;;;;;0.99;94.51;96725.47;5033103;28;20182;-69
2021/01/13 01:02:46;;;;;;;5.10;3.03;;;;;;;0.97;94.74;96730.00;5051254;28;20651;-69
2021/01/13 01:05:11;;;;;;;3.93;2.93;;;;;;;1.08;94.68;96731.41;5050033;28;20615;-70
2021/01/13 01:07:44;;;;;;;3.47;3.13;;;;;;;1.00;94.79;96729.69;5051036;28;20170;-70
2021/01/13 01:10:31;;;;;;;4.00;3.53;;;;;;;0.90;95.14;96735.97;5050193;28;20202;-69
2021/01/13 01:12:57;;;;;;;3.53;3.07;;;;;;;0.98;94.69;96738.53;5033228;28;20638;-72
2021/01/13 01:15:23;;;;;;;5.23;2.77;;;;;;;1.03;93.76;96738.84;5050999;28;20185;-69
2021/01/13 01:17:49;;;;;;;5.60;2.80;;;;;;;1.01;93.81;96740.78;5050946;28;20181;-69
2021/01/13 01:20:15;;;;;;;3.20;2.60;;;;;;;1.03;94.61;96744.81;5050109;28;20248;-69
2021/01/13 01:23:00;;;;;;;4.83;2.47;;;;;;;1.06;94.62;96748.84;5051238;28;20182;-69
2021/01/13 01:25:27;;;;;;;5.13;2.43;;;;;;;1.12;93.55;96742.97;5050608;28;20178;-69
2021/01/13 01:27:57;;;;;;;3.50;2.57;;;;;;;1.08;92.39;96744.31;5050783;28;20193;-70
2021/01/13 01:30:25;;;;;;;4.93;1.97;;;;;;;1.10;92.01;96745.75;5032421;28;20259;-69
2021/01/13 01:32:51;;;;;;;5.27;2.00;;;;;;;1.10;93.07;96756.06;5033014;28;20260;-69
2021/01/13 01:35:16;;;;;;;4.30;2.17;;;;;;;0.98;92.42;96759.19;5050175;28;20432;-69
2021/01/13 01:37:42;;;;;;;5.73;1.97;;;;;;;1.03;92.75;96760.28;5050526;28;20650;-69
2021/01/13 01:40:11;;;;;;;4.73;2.70;;;;;;;1.06;92.05;96761.75;5032534;28;20654;-69
2021/01/13 01:42:36;;;;;;;6.27;2.10;;;;;;;1.03;92.33;96762.06;5051136;28;20182;-69
2021/01/13 01:45:04;;;;;;;4.43;2.13;;;;;;;1.13;92.53;96762.66;5049871;28;20243;-69
2021/01/13 01:48:00;;;;;;;4.57;2.20;;;;;;;1.13;91.76;96773.78;5050925;28;20201;-68
2021/01/13 01:50:31;;;;;;;5.13;2.03;;;;;;;1.09;91.20;96766.56;5036862;28;20242;-70
2021/01/13 01:53:38;;;;;;;4.30;2.00;;;;;;;1.10;91.17;96776.72;5032175;28;20193;-71
2021/01/13 01:56:18;;;;;;;4.33;1.80;;;;;;;1.06;91.30;96785.75;5022236;28;20200;-69
2021/01/13 01:58:47;;;;;;;4.90;2.00;;;;;;;1.02;92.30;96786.25;5049233;28;20186;-69
2021/01/13 02:01:14;;;;;;;5.77;1.67;;;;;;;1.06;91.35;96793.50;5049820;28;20182;-70
2021/01/13 02:03:53;;;;;;;1.70;1.57;;;;;;;1.05;91.75;96786.75;5050882;28;20182;-70
2021/01/13 02:06:29;;;;;;;2.80;1.90;;;;;;;1.10;90.66;96786.25;5049805;28;20186;-68
2021/01/13 02:08:54;;;;;;;4.50;1.80;;;;;;;1.11;90.65;96790.44;5050768;28;20185;-69
2021/01/13 02:11:25;;;;;;;2.00;1.77;;;;;;;1.22;90.05;96790.06;5052926;28;20781;-69
2021/01/13 02:13:51;;;;;;;2.60;1.40;;;;;;;1.10;91.79;96787.03;5054215;28;20177;-69
2021/01/13 02:16:19;;;;;;;4.23;1.60;;;;;;;1.12;91.63;96781.69;5052560;28;20181;-69
2021/01/13 02:18:48;;;;;;;4.77;1.60;;;;;;;1.21;90.60;96786.69;5054098;28;20220;-68
2021/01/13 02:21:16;;;;;;;4.33;1.70;;;;;;;1.20;90.82;96786.84;5052235;28;20606;-69
2021/01/13 02:23:49;;;;;;;2.17;1.40;;;;;;;1.21;89.68;96788.44;5036181;28;20190;-68
2021/01/13 02:26:43;;;;;;;4.33;1.50;;;;;;;1.26;89.99;96793.91;5053009;28;20182;-70
2021/01/13 02:29:08;;;;;;;1.90;1.20;;;;;;;1.21;89.31;96791.84;5050441;28;20217;-69
2021/01/13 02:31:57;;;;;;;3.27;1.60;;;;;;;1.28;89.12;96793.75;5053666;28;20182;-69
2021/01/13 02:34:34;;;;;;;2.47;1.47;;;;;;;1.31;89.56;96789.03;5034604;28;20200;-69
2021/01/13 02:37:28;;;;;;;3.77;1.40;;;;;;;1.34;88.99;96793.09;5045010;28;20599;-72
2021/01/13 02:39:55;;;;;;;3.33;1.67;;;;;;;1.39;89.80;96798.53;5036374;28;20565;-68
2021/01/13 02:42:24;;;;;;;4.03;1.70;;;;;;;1.41;88.61;96799.97;5052930;28;20186;-69
2021/01/13 02:45:11;;;;;;;2.93;1.40;;;;;;;1.44;88.58;96794.47;5053681;28;20184;-68
2021/01/13 02:47:52;;;;;;;3.90;1.63;;;;;;;1.34;88.57;96795.66;5053159;28;20627;-70
2021/01/13 02:50:23;;;;;;;5.63;1.70;;;;;;;1.37;88.57;96796.13;5050606;28;20759;-71
2021/01/13 02:53:07;;;;;;;2.90;1.60;;;;;;;1.31;89.49;96793.41;5053079;28;20178;-70
2021/01/13 02:55:39;;;;;;;3.33;1.57;;;;;;;1.37;89.17;96797.91;5052099;28;20189;-69
2021/01/13 02:58:08;;;;;;;2.50;1.30;;;;;;;1.33;88.46;96801.78;5051802;28;20236;-69
2021/01/13 03:00:36;;;;;;;3.07;1.60;;;;;;;1.29;89.50;96805.66;5052276;28;20208;-69
2021/01/13 03:03:01;;;;;;;4.30;2.07;;;;;;;1.30;88.74;96805.50;5052044;28;20711;-72
2021/01/13 03:05:30;;;;;;;5.00;1.83;;;;;;;1.25;89.54;96803.44;5051662;28;20178;-70
2021/01/13 03:07:57;;;;;;;4.33;1.40;;;;;;;1.29;89.14;96806.47;5052887;28;20185;-70
2021/01/13 03:10:25;;;;;;;1.50;1.40;;;;;;;1.33;88.33;96799.22;5052106;28;20291;-70
2021/01/13 03:13:02;;;;;;;3.00;1.80;;;;;;;1.31;88.88;96804.53;5034914;28;20186;-70
2021/01/13 03:15:28;;;;;;;4.40;2.13;;;;;;;1.29;88.55;96803.88;5052978;28;20698;-69
2021/01/13 03:18:00;;;;;;;2.73;1.63;;;;;;;1.31;89.59;96809.69;5053095;28;20665;-69
2021/01/13 03:20:29;;;;;;;3.50;2.07;;;;;;;1.22;89.04;96808.94;5050892;28;20193;-69
2021/01/13 03:23:19;;;;;;;3.30;1.67;;;;;;;1.23;89.35;96814.88;5034482;28;20185;-69
2021/01/13 03:26:04;;;;;;;4.63;1.87;;;;;;;1.22;89.41;96811.53;5034956;28;20185;-71
2021/01/13 03:28:35;;;;;;;3.07;1.67;;;;;;;1.22;89.05;96813.31;5052426;28;20174;-69
2021/01/13 03:31:01;;;;;;;3.33;1.50;;;;;;;1.29;89.39;96813.41;5051269;28;20678;-72
2021/01/13 03:33:33;;;;;;;3.97;1.47;;;;;;;1.31;88.88;96821.81;5052075;28;20182;-70
2021/01/13 03:36:02;;;;;;;6.13;1.77;;;;;;;1.34;89.34;96811.94;5052261;28;20178;-72
2021/01/13 03:38:30;;;;;;;3.37;1.50;;;;;;;1.33;88.83;96815.50;5052500;28;20182;-68
2021/01/13 03:41:04;;;;;;;5.13;2.00;;;;;;;1.25;89.31;96818.91;5052056;28;20232;-69
2021/01/13 03:43:38;;;;;;;3.77;1.70;;;;;;;1.32;88.99;96811.31;5051943;28;20681;-70
2021/01/13 03:46:06;;;;;;;8.80;2.00;;;;;;;1.16;90.34;96811.38;5050648;28;20189;-70
2021/01/13 03:48:50;;;;;;;2.47;2.00;;;;;;;1.24;89.14;96817.31;5052345;28;20185;-70
2021/01/13 03:51:25;;;;;;;7.93;2.10;;;;;;;1.28;89.78;96817.78;5050580;28;20757;-69
2021/01/13 03:53:52;;;;;;;3.90;1.83;;;;;;;1.36;88.72;96814.34;5051393;28;20190;-68
2021/01/13 03:56:26;;;;;;;4.27;1.87;;;;;;;1.42;88.89;96821.44;5050393;28;20235;-69
2021/01/13 03:58:52;;;;;;;2.63;1.70;;;;;;;1.38;88.74;96823.56;5052294;28;20178;-69
2021/01/13 04:01:26;;;;;;;5.90;1.90;;;;;;;1.29;89.14;96824.53;5051297;28;20209;-69
2021/01/13 04:04:00;;;;;;;4.27;2.00;;;;;;;1.31;89.59;96837.28;5052410;28;20535;-70
2021/01/13 04:06:26;;;;;;;2.80;1.93;;;;;;;1.34;89.50;96832.59;5035712;28;20178;-70
2021/01/13 04:08:52;;;;;;;5.07;1.80;;;;;;;1.36;89.05;96833.22;5051556;28;20343;-69
2021/01/13 04:11:20;;;;;;;4.93;1.67;;;;;;;1.33;89.32;96823.25;5051017;28;20665;-70
2021/01/13 04:13:47;;;;;;;3.53;1.77;;;;;;;1.35;89.62;96833.41;5051761;28;20182;-69
2021/01/13 04:16:15;;;;;;;3.30;2.20;;;;;;;1.32;89.23;96824.22;5050659;28;20269;-70
2021/01/13 04:18:42;;;;;;;3.73;1.77;;;;;;;1.19;90.31;96829.09;5051841;28;20186;-70
2021/01/13 04:21:11;;;;;;;3.00;2.00;;;;;;;1.16;89.99;96832.84;5049898;28;20186;-70
2021/01/13 04:23:37;;;;;;;4.97;2.30;;;;;;;0.98;90.43;96829.66;5034428;28;20189;-70
2021/01/13 04:26:03;;;;;;;3.20;2.27;;;;;;;0.96;91.17;96831.59;5051012;28;20685;-72
2021/01/13 04:28:29;;;;;;;4.20;2.13;;;;;;;1.06;90.47;96839.16;5051575;28;20232;-70
2021/01/13 04:30:55;;;;;;;6.03;2.33;;;;;;;1.03;90.66;96835.13;5050415;28;20193;-70
2021/01/13 04:33:22;;;;;;;3.03;2.20;;;;;;;1.12;89.70;96843.63;5040972;28;20284;-70
2021/01/13 04:35:48;;;;;;;4.30;2.10;;;;;;;1.18;89.25;96840.41;5051480;28;20694;-69
2021/01/13 04:38:20;;;;;;;5.70;2.17;;;;;;;1.16;88.47;96838.00;5032862;28;20186;-70
2021/01/13 04:40:50;;;;;;;6.53;2.90;;;;;;;1.20;88.99;96839.28;5051071;28;20166;-70
2021/01/13 04:43:21;;;;;;;4.57;2.47;;;;;;;1.12;88.88;96835.91;5050302;28;20563;-70
2021/01/13 04:45:49;;;;;;;4.20;2.40;;;;;;;1.07;88.73;96841.56;5033336;28;20209;-69
2021/01/13 04:48:17;;;;;;;4.27;2.30;;;;;;;0.99;89.36;96843.38;5050300;28;20190;-70
2021/01/13 04:50:48;;;;;;;5.50;2.07;;;;;;;1.04;89.40;96846.25;5032237;28;20241;-70
2021/01/13 04:53:18;;;;;;;3.00;2.03;;;;;;;0.98;88.59;96842.56;5050374;28;20591;-70
2021/01/13 04:55:49;;;;;;;4.50;2.30;;;;;;;1.09;88.50;96841.41;5050688;28;20170;-70
2021/01/13 04:58:20;;;;;;;4.27;2.13;;;;;;;1.07;88.48;96849.31;5050565;28;20240;-69
2021/01/13 05:01:14;;;;;;;3.77;2.57;;;;;;;1.05;88.94;96853.03;5051147;28;20275;-69
2021/01/13 05:03:39;;;;;;;5.40;1.97;;;;;;;1.04;89.00;96859.16;5050977;28;20210;-72
2021/01/13 05:06:32;;;;;;;5.80;2.10;;;;;;;1.10;88.34;96855.91;5050204;28;20263;-73
2021/01/13 05:09:06;;;;;;;4.50;2.23;;;;;;;0.97;88.44;96855.63;5041565;28;20170;-69
2021/01/13 05:11:42;;;;;;;2.83;2.07;;;;;;;0.98;87.96;96857.22;5050358;28;20646;-69
2021/01/13 05:14:09;;;;;;;2.83;1.70;;;;;;;0.91;88.45;96864.81;5049651;28;20669;-70
2021/01/13 05:16:50;;;;;;;3.57;2.17;;;;;;;1.09;88.46;96865.44;5036090;28;20236;-69
2021/01/13 05:19:37;;;;;;;2.67;1.97;;;;;;;1.02;88.34;96876.56;5049210;28;20189;-70
2021/01/13 05:22:07;;;;;;;4.40;2.37;;;;;;;0.83;88.59;96878.56;5050409;28;20196;-73
2021/01/13 05:24:39;;;;;;;3.73;2.30;;;;;;;1.01;88.08;96873.19;5049787;28;20646;-70
2021/01/13 05:27:29;;;;;;;2.53;2.00;;;;;;;1.06;88.15;96870.91;5050756;28;20169;-72
2021/01/13 05:29:59;;;;;;;2.67;1.90;;;;;;;1.08;87.45;96866.41;5051242;28;20255;-70
2021/01/13 05:32:27;;;;;;;3.80;2.10;;;;;;;1.16;86.79;96871.56;5048584;28;20189;-70
2021/01/13 05:34:56;;;;;;;4.03;2.10;;;;;;;1.12;87.17;96870.25;5050420;28;20182;-70
2021/01/13 05:37:48;;;;;;;3.07;2.10;;;;;;;1.25;86.76;96870.53;5050099;28;21105;-70
2021/01/13 05:40:17;;;;;;;5.60;2.10;;;;;;;1.18;86.25;96872.19;5050115;28;20193;-70
2021/01/13 05:42:44;;;;;;;3.17;2.10;;;;;;;1.15;87.13;96863.97;5052127;28;20201;-70
2021/01/13 05:45:11;;;;;;;5.20;2.30;;;;;;;1.26;86.81;96866.19;5054270;28;20173;-70
2021/01/13 05:48:01;;;;;;;5.93;2.30;;;;;;;1.20;86.88;96861.69;5054536;28;20200;-70
2021/01/13 05:50:27;;;;;;;3.17;2.00;;;;;;;1.25;86.89;96867.16;5053098;28;20237;-70
2021/01/13 05:52:54;;;;;;;4.13;1.90;;;;;;;1.22;86.92;96864.94;5054372;28;20209;-70
2021/01/13 05:55:23;;;;;;;4.10;2.00;;;;;;;1.10;86.72;96861.88;5054095;28;20182;-69
2021/01/13 05:58:04;;;;;;;4.10;1.90;;;;;;;1.17;86.77;96867.97;5054329;28;20270;-68
2021/01/13 06:00:32;;;;;;;3.83;2.00;;;;;;;1.19;86.89;96863.47;5054013;28;20178;-70
2021/01/13 06:02:59;;;;;;;5.63;2.57;;;;;;;1.09;87.99;96855.13;5053803;28;20259;-70
2021/01/13 06:05:27;;;;;;;3.90;2.00;;;;;;;1.02;88.04;96859.31;5043513;28;20233;-70
2021/01/13 06:07:55;;;;;;;3.03;1.80;;;;;;;0.97;88.82;96859.00;5054164;28;20190;-70
2021/01/13 06:10:24;;;;;;;4.93;2.17;;;;;;;0.96;88.48;96856.59;5053118;28;20654;-70
2021/01/13 06:12:52;;;;;;;5.17;2.27;;;;;;;0.91;89.21;96854.50;5054326;28;20189;-70
2021/01/13 06:15:25;;;;;;;7.50;3.33;;;;;;;0.94;88.83;96853.38;5053131;28;20178;-70
2021/01/13 06:17:52;;;;;;;5.97;2.40;;;;;;;0.84;89.75;96866.44;5054218;28;20642;-70
2021/01/13 06:20:23;;;;;;;4.70;2.40;;;;;;;0.75;90.19;96863.09;5053582;28;20182;-70
2021/01/13 06:22:50;;;;;;;5.03;2.53;;;;;;;0.76;90.02;96864.69;5052870;28;20192;-69
2021/01/13 06:25:22;;;;;;;5.70;2.50;;;;;;;0.66;90.11;96869.22;5053186;28;20178;-70
2021/01/13 06:28:08;;;;;;;4.33;2.67;;;;;;;0.65;90.54;96865.03;5053212;28;20213;-70
2021/01/13 06:30:40;;;;;;;5.67;2.93;;;;;;;0.62;90.66;96864.53;5053594;28;20290;-70
2021/01/13 06:33:19;;;;;;;3.30;2.73;;;;;;;0.47;91.76;96866.16;5053477;28;20174;-72
2021/01/13 06:35:45;;;;;;;5.70;2.90;;;;;;;0.50;91.60;96868.44;5053603;28;20635;-71
2021/01/13 06:38:48;;;;;;;6.60;3.20;;;;;;;0.41;92.06;96870.19;5052739;28;20189;-70
2021/01/13 06:41:14;;;;;;;4.37;2.90;;;;;;;0.39;92.83;96866.97;5052087;28;20287;-70
2021/01/13 06:43:55;;;;;;;14.87;3.83;;;;;;;0.41;92.50;96870.19;5043460;28;20186;-69
2021/01/13 06:46:21;;;;;;;10.07;3.63;;;;;;;0.30;93.30;96868.72;5042411;28;20270;-70
2021/01/13 06:48:46;;;;;;;5.03;3.50;;;;;;;0.36;92.60;96870.66;5043396;28;20571;-70
2021/01/13 06:51:15;;;;;;;6.30;3.53;;;;;;;0.34;93.45;96877.75;5039588;28;20241;-69
2021/01/13 06:53:43;;;;;;;5.97;3.80;;;;;;;0.26;94.17;96874.38;5043036;28;20254;-68
2021/01/13 06:56:10;;;;;;;5.47;3.30;;;;;;;0.05;95.18;96874.03;5042388;28;20185;-71
2021/01/13 06:58:37;;;;;;;4.63;3.47;;;;;;;0.22;94.63;96883.41;5052926;28;20178;-75
2021/01/13 07:01:04;;;;;;;6.23;3.27;;;;;;;0.30;93.34;96880.81;5053327;28;20639;-75
2021/01/13 07:03:32;;;;;;;6.77;3.17;;;;;;;0.31;93.30;96872.13;5052346;28;20595;-74
2021/01/13 07:06:01;;;;;;;3.53;3.23;;;;;;;0.25;93.08;96875.34;5052909;28;20189;-75
2021/01/13 07:08:27;;;;;;;3.70;3.03;;;;;;;0.27;93.71;96886.31;5052366;28;20174;-76
2021/01/13 07:11:04;;;;;;;4.87;3.03;;;;;;;0.22;93.23;96883.41;5052770;28;20208;-75
2021/01/13 07:13:33;;;;;;;7.17;3.70;;;;;;;0.11;94.21;96891.44;5052345;28;20177;-76
2021/01/13 07:16:00;;;;;;;7.67;3.57;;;;;;;0.16;93.35;96884.84;5052707;28;20209;-72
2021/01/13 07:18:27;;;;;;;8.93;4.30;;;;;;;0.25;92.64;96889.03;5052125;28;20213;-74
2021/01/13 07:20:54;;;;;;;8.83;4.30;;;;;;;0.18;92.76;96880.31;5052783;28;20208;-72
2021/01/13 07:23:21;;;;;;;5.23;3.67;;;;;;;0.12;92.98;96882.72;5052210;28;20540;-74
2021/01/13 07:25:50;;;;;;;11.83;3.53;;;;;;;0.13;93.32;96890.28;5052851;28;20201;-74
2021/01/13 07:28:17;;;;;;;7.77;3.50;;;;;;;0.11;93.59;96892.25;5051433;28;20181;-72
2021/01/13 07:30:44;;;;;;;6.00;3.40;;;;;;;0.09;93.37;96894.16;5034102;28;20235;-71
2021/01/13 07:33:14;;;;;;;6.30;3.70;;;;;;;0.06;93.64;96899.63;5051698;28;20170;-71
2021/01/13 07:35:45;;;;;;;4.60;3.50;;;;;;;0.09;93.77;96907.03;5052027;28;20182;-72
2021/01/13 07:38:19;;;;;;;6.93;3.80;;;;;;;0.20;94.12;96914.47;5051546;28;20217;-70
2021/01/13 07:40:57;;;;;;;5.30;3.30;;;;;;;0.16;94.05;96917.53;5045569;28;20320;-72
2021/01/13 07:43:51;;;;;;;6.00;4.07;;;;;;;0.20;93.96;96924.78;5017750;28;20202;-71
2021/01/13 07:46:30;;;;;;;5.83;3.83;;;;;;;0.17;94.18;96927.66;5050619;28;20534;-71
2021/01/13 07:49:18;;;;;;;8.70;3.70;;;;;;;0.17;93.95;96926.88;5051845;28;20170;-71
2021/01/13 07:51:49;;;;;;;4.43;3.67;;;;;;;0.17;94.41;96929.47;5050647;28;20230;-71
2021/01/13 07:54:29;;;;;;;7.00;3.60;;;;;;;0.29;93.40;96936.72;5051769;28;20639;-70
2021/01/13 07:56:59;;;;;;;6.23;3.47;;;;;;;0.38;92.65;96929.81;5052017;28;20235;-71
2021/01/13 07:59:36;;;;;;;7.17;3.47;;;;;;;0.50;92.35;96930.31;5051428;28;20174;-72
2021/01/13 08:02:17;;;;;;;9.43;3.67;;;;;;;0.49;92.40;96933.84;5051649;28;20180;-69
2021/01/13 08:04:55;;;;;;;5.53;3.47;;;;;;;0.54;92.70;96929.81;5051930;28;20205;-70
2021/01/13 08:07:38;;;;;;;6.80;3.10;;;;;;;0.66;92.04;96935.47;5048805;28;20186;-73
2021/01/13 08:10:06;;;;;;;4.60;3.67;;;;;;;0.60;91.65;96939.50;5043976;28;20193;-71
2021/01/13 08:13:08;;;;;;;5.37;3.40;;;;;;;0.62;91.17;96934.16;5051218;28;20185;-72
2021/01/13 08:16:10;;;;;;;6.60;3.53;;;;;;;0.72;89.85;96935.63;5036767;28;20185;-71
2021/01/13 08:18:59;;;;;;;5.87;3.33;;;;;;;0.81;90.20;96942.41;5040621;28;20174;-71
2021/01/13 08:21:58;;;;;;;4.67;3.57;;;;;;;0.90;89.42;96942.38;5043136;28;20308;-71
2021/01/13 08:24:50;;;;;;;5.27;2.93;;;;;;;0.80;88.77;96951.09;5039169;28;20197;-69
2021/01/13 08:27:16;;;;;;;6.93;3.07;;;;;;;0.93;88.37;96945.47;5049708;28;20182;-71
2021/01/13 08:29:53;;;;;;;6.60;3.40;;;;;;;1.17;87.65;96944.63;5052086;28;20209;-71
2021/01/13 08:32:22;;;;;;;9.10;3.17;;;;;;;1.31;87.92;96949.13;5051007;28;20475;-72
2021/01/13 08:34:51;;;;;;;5.60;2.90;;;;;;;1.39;87.01;96949.09;5051964;28;20206;-72
2021/01/13 08:37:17;;;;;;;4.30;3.13;;;;;;;1.51;86.66;96959.88;5049998;28;20565;-76
2021/01/13 08:39:43;;;;;;;6.53;2.70;;;;;;;1.52;85.67;96962.28;5050313;28;20214;-70
2021/01/13 08:42:25;;;;;;;5.87;2.87;;;;;;;1.54;84.98;96952.59;5051147;28;20589;-72
2021/01/13 08:44:54;;;;;;;4.27;2.50;;;;;;;1.59;84.74;96962.44;5044573;28;20585;-71
2021/01/13 08:47:21;;;;;;;4.73;3.10;;;;;;;1.61;84.66;96961.31;5042075;28;20188;-71
2021/01/13 08:49:47;;;;;;;5.87;2.90;;;;;;;1.54;85.11;96957.78;5044657;28;20272;-72
2021/01/13 08:52:28;;;;;;;7.13;2.90;;;;;;;1.64;84.98;96960.16;5049374;28;20270;-71
2021/01/13 08:54:56;;;;;;;5.23;2.73;;;;;;;1.70;83.65;96956.09;5050314;28;20181;-71
2021/01/13 08:57:26;;;;;;;5.70;3.40;;;;;;;1.50;84.25;96960.84;5049938;28;20260;-72
2021/01/13 08:59:52;;;;;;;6.50;3.43;;;;;;;1.44;85.23;96964.91;5049383;28;20186;-71
2021/01/13 09:02:23;;;;;;;4.10;3.00;;;;;;;1.50;84.81;96968.59;5050233;28;20199;-72
2021/01/13 09:04:53;;;;;;;5.40;3.20;;;;;;;1.38;85.55;96962.19;5049878;28;20194;-70
2021/01/13 09:07:29;;;;;;;7.80;3.40;;;;;;;1.41;85.16;96964.41;5050933;28;20227;-71
2021/01/13 09:10:04;;;;;;;3.50;3.00;;;;;;;1.35;85.34;96970.22;5048891;28;20229;-71
2021/01/13 09:12:34;;;;;;;6.07;3.07;;;;;;;1.23;85.83;96957.66;5049893;28;20177;-70
2021/01/13 09:15:10;;;;;;;5.63;3.30;;;;;;;1.19;86.46;96955.56;5050842;28;20193;-71
2021/01/13 09:17:41;;;;;;;5.20;3.10;;;;;;;1.31;85.02;96967.19;5051503;28;20177;-72
2021/01/13 09:20:17;;;;;;;6.67;3.17;;;;;;;1.33;84.31;96969.59;5054176;28;20177;-70
2021/01/13 09:22:49;;;;;;;8.03;3.80;;;;;;;1.42;84.28;96968.63;5055433;28;20178;-71
2021/01/13 09:25:20;;;;;;;5.60;3.40;;;;;;;1.52;84.23;96969.22;5054038;28;20666;-71
2021/01/13 09:27:49;;;;;;;3.90;2.97;;;;;;;1.61;83.07;96952.75;5055051;28;20772;-71
2021/01/13 09:30:24;;;;;;;5.97;2.50;;;;;;;1.64;82.29;96962.75;5054045;28;20291;-71
2021/01/13 09:32:54;;;;;;;3.40;3.07;;;;;;;1.74;82.77;96972.88;5055017;28;20222;-71
2021/01/13 09:35:32;;;;;;;3.63;2.87;;;;;;;1.90;82.33;96973.63;5053672;28;20642;-71
2021/01/13 09:38:04;;;;;;;3.23;2.60;;;;;;;1.99;82.01;96969.25;5054780;28;20192;-73
2021/01/13 09:41:01;;;;;;;5.97;2.70;;;;;;;2.08;81.73;96981.94;5053701;28;20189;-71
2021/01/13 09:43:34;;;;;;;4.37;2.50;;;;;;;2.02;80.07;96979.22;5054012;28;20181;-71
2021/01/13 09:46:02;;;;;;;7.43;2.70;;;;;;;2.02;81.61;96982.63;5041898;28;20174;-71
2021/01/13 09:48:30;;;;;;;5.53;2.83;;;;;;;2.01;81.92;96982.78;5053869;28;20238;-71
2021/01/13 09:51:03;;;;;;;8.93;2.80;;;;;;;2.18;81.51;96986.09;5053955;28;20238;-71
2021/01/13 09:53:32;;;;;;;5.10;2.47;;;;;;;2.09;81.01;96982.75;5053719;28;20635;-71
2021/01/13 09:56:03;;;;;;;3.40;2.47;;;;;;;2.15;80.50;96987.25;5053530;28;20182;-72
2021/01/13 09:58:53;;;;;;;3.03;2.43;;;;;;;2.12;80.78;96985.00;5053796;28;20167;-71
2021/01/13 10:01:20;;;;;;;3.83;2.47;;;;;;;2.09;80.14;96986.16;5038925;28;20644;-71
2021/01/13 10:03:48;;;;;;;4.57;2.47;;;;;;;2.19;79.94;96980.78;5054186;28;20638;-71
2021/01/13 10:06:16;;;;;;;4.80;2.50;;;;;;;2.29;79.99;96975.38;5054097;28;20183;-71
2021/01/13 10:08:42;;;;;;;3.60;2.10;;;;;;;2.32;79.66;96977.66;5054222;28;20187;-70
2021/01/13 10:11:08;;;;;;;4.77;2.17;;;;;;;2.34;80.44;96981.66;5054007;28;20237;-72
2021/01/13 10:13:38;;;;;;;3.30;2.00;;;;;;;2.49;79.23;96974.00;5053502;28;20252;-72
2021/01/13 10:16:05;;;;;;;5.07;2.10;;;;;;;2.56;80.53;96979.28;5054189;28;20297;-72
2021/01/13 10:18:31;;;;;;;3.33;2.17;;;;;;;2.53;79.35;96985.59;5053185;28;20185;-72
2021/01/13 10:20:59;;;;;;;6.03;2.13;;;;;;;2.74;78.09;96983.19;5054027;28;20243;-75
2021/01/13 10:23:26;;;;;;;4.97;1.90;;;;;;;2.66;78.24;96978.09;5053295;28;20197;-69
2021/01/13 10:26:03;;;;;;;5.60;2.30;;;;;;;2.78;77.75;96973.31;5053836;28;20185;-73
2021/01/13 10:28:29;;;;;;;5.90;2.70;;;;;;;2.71;78.31;96972.38;5052062;28;20513;-74
2021/01/13 10:30:54;;;;;;;4.00;2.10;;;;;;;2.68;77.46;96972.72;5053001;28;20204;-74
2021/01/13 10:33:47;;;;;;;4.40;2.20;;;;;;;2.90;78.24;96966.72;5044710;28;20586;-74
2021/01/13 10:36:32;;;;;;;3.50;2.63;;;;;;;3.16;77.97;96968.97;5042655;28;20545;-74
2021/01/13 10:39:19;;;;;;;5.93;2.53;;;;;;;3.22;77.03;96963.88;5041110;28;20244;-74
2021/01/13 10:41:47;;;;;;;5.87;2.20;;;;;;;3.14;76.79;96963.94;5024720;28;20225;-75
2021/01/13 10:44:17;;;;;;;3.83;2.00;;;;;;;3.16;76.05;96959.41;5053353;28;20182;-75
2021/01/13 10:46:44;;;;;;;4.17;2.33;;;;;;;3.20;75.84;96955.47;5053398;28;20189;-73
2021/01/13 10:49:29;;;;;;;8.03;2.70;;;;;;;3.30;75.56;96957.81;5052453;28;20635;-73
2021/01/13 10:51:54;;;;;;;6.57;2.40;;;;;;;3.45;74.94;96958.66;5043693;28;20743;-72
2021/01/13 10:54:26;;;;;;;2.77;2.47;;;;;;;3.33;76.31;96958.28;5052873;28;20185;-73
2021/01/13 10:57:00;;;;;;;5.90;2.30;;;;;;;3.68;75.21;96956.75;5053406;28;20247;-72
2021/01/13 10:59:28;;;;;;;5.03;2.97;;;;;;;3.89;74.46;96960.44;5052751;28;20177;-71
2021/01/13 11:01:54;;;;;;;6.73;2.67;;;;;;;4.00;74.11;96959.97;5052887;28;20190;-73
2021/01/13 11:04:30;;;;;;;5.37;2.70;;;;;;;4.07;73.97;96958.25;5051785;28;20185;-72
2021/01/13 11:07:01;;;;;;;3.97;2.17;;;;;;;4.11;73.76;96959.50;5053219;28;20177;-72
2021/01/13 11:09:28;;;;;;;5.03;2.70;;;;;;;4.15;73.49;96955.56;5052372;28;20200;-72
2021/01/13 11:11:55;;;;;;;4.73;2.90;;;;;;;4.18;74.06;96953.41;5052657;28;20650;-72
2021/01/13 11:14:31;;;;;;;7.77;2.90;;;;;;;4.40;73.16;96943.84;5052037;28;20302;-72
2021/01/13 11:17:09;;;;;;;6.57;2.97;;;;;;;4.28;74.17;96942.75;5052956;28;20185;-70
2021/01/13 11:19:35;;;;;;;4.93;2.80;;;;;;;4.58;73.79;96941.66;5052080;28;20444;-72
2021/01/13 11:22:01;;;;;;;5.40;2.53;;;;;;;4.56;73.66;96933.28;5052276;28;20197;-73
2021/01/13 11:24:31;;;;;;;5.50;2.77;;;;;;;4.81;72.66;96932.88;5052133;28;20186;-74
2021/01/13 11:27:02;;;;;;;5.30;3.00;;;;;;;4.53;73.57;96931.03;5034461;28;20177;-73
2021/01/13 11:29:30;;;;;;;8.27;3.37;;;;;;;4.47;73.51;96930.94;5051886;28;20243;-73
2021/01/13 11:31:56;;;;;;;4.03;2.80;;;;;;;4.42;74.47;96925.50;5052438;28;20186;-73
2021/01/13 11:34:22;;;;;;;3.10;2.33;;;;;;;4.42;73.60;96928.91;5051718;28;20223;-73
2021/01/13 11:36:56;;;;;;;2.97;2.40;;;;;;;4.27;74.34;96925.56;5052562;28;20178;-73
2021/01/13 11:39:29;;;;;;;3.90;2.77;;;;;;;4.25;73.92;96924.13;5051089;28;20178;-73
2021/01/13 11:42:16;;;;;;;3.93;2.67;;;;;;;4.23;74.68;96918.34;5033763;28;20178;-73
2021/01/13 11:45:04;;;;;;;6.10;2.83;;;;;;;4.32;73.76;96914.63;5052211;28;20243;-73
2021/01/13 11:47:33;;;;;;;4.60;2.53;;;;;;;4.28;73.93;96916.81;5026289;28;20626;-73
2021/01/13 11:50:08;;;;;;;4.70;2.30;;;;;;;4.22;73.70;96907.16;5051311;28;20236;-73
2021/01/13 11:52:38;;;;;;;6.57;2.20;;;;;;;4.42;74.05;96915.13;5051200;28;20292;-73
2021/01/13 11:55:05;;;;;;;5.43;1.90;;;;;;;4.49;72.38;96903.03;5051819;28;20235;-73
2021/01/13 11:57:34;;;;;;;3.67;2.07;;;;;;;4.38;72.63;96904.34;5050956;28;20213;-73
2021/01/13 12:00:27;;;;;;;4.33;1.90;;;;;;;4.44;71.37;96903.59;5051575;28;20178;-72
2021/01/13 12:02:54;;;;;;;4.80;2.07;;;;;;;4.36;71.99;96901.09;5051763;28;20634;-72
2021/01/13 12:05:37;;;;;;;5.47;1.77;;;;;;;4.40;71.97;96899.75;5050395;28;20739;-73